sensor_id;sensor_type;location;lat;lon;timestamp;pressure;altitude;pressure_sealevel;temperature;humidity
66543;BME280;53395;37.360;-122.046;2022-08-19T00:00:38;100804.31;;;24.07;64.43
66543;BME280;53395;37.360;-122.046;2022-08-19T00:03:05;100814.88;;;23.71;66.10
66543;BME280;53395;37.360;-122.046;2022-08-19T00:05:32;100812.47;;;24.16;64.57
66543;BME280;53395;37.360;-122.046;2022-08-19T00:07:59;100817.59;;;23.95;65.61
66543;BME280;53395;37.360;-122.046;2022-08-19T00:10:25;100819.41;;;23.95;65.85
66543;BME280;53395;37.360;-122.046;2022-08-19T00:12:52;100813.28;;;23.69;66.68
66543;BME280;53395;37.360;-122.046;2022-08-19T00:15:20;100805.63;;;23.51;67.37
66543;BME280;53395;37.360;-122.046;2022-08-19T00:17:47;100813.16;;;24.07;66.68
66543;BME280;53395;37.360;-122.046;2022-08-19T00:20:17;100813.34;;;23.43;67.81
66543;BME280;53395;37.360;-122.046;2022-08-19T00:22:45;100811.66;;;22.91;70.75
66543;BME280;53395;37.360;-122.046;2022-08-19T00:25:11;100824.47;;;23.24;71.41
66543;BME280;53395;37.360;-122.046;2022-08-19T00:27:38;100819.56;;;23.05;73.20
66543;BME280;53395;37.360;-122.046;2022-08-19T00:30:05;100834.13;;;22.87;74.31
66543;BME280;53395;37.360;-122.046;2022-08-19T00:32:32;100832.41;;;22.73;73.28
66543;BME280;53395;37.360;-122.046;2022-08-19T00:35:00;100832.41;;;22.33;73.25
66543;BME280;53395;37.360;-122.046;2022-08-19T00:37:27;100820.56;;;22.64;72.72
66543;BME280;53395;37.360;-122.046;2022-08-19T00:39:54;100824.72;;;22.55;73.53
66543;BME280;53395;37.360;-122.046;2022-08-19T00:42:22;100823.78;;;22.29;74.20
66543;BME280;53395;37.360;-122.046;2022-08-19T00:44:48;100823.31;;;22.50;74.86
66543;BME280;53395;37.360;-122.046;2022-08-19T00:47:16;100832.53;;;21.90;76.22
66543;BME280;53395;37.360;-122.046;2022-08-19T00:49:53;100828.03;;;21.49;77.23
66543;BME280;53395;37.360;-122.046;2022-08-19T00:52:23;100830.91;;;21.46;77.77
66543;BME280;53395;37.360;-122.046;2022-08-19T00:54:51;100831.94;;;21.29;78.14
66543;BME280;53395;37.360;-122.046;2022-08-19T00:57:22;100829.84;;;21.48;79.58
66543;BME280;53395;37.360;-122.046;2022-08-19T00:59:52;100823.00;;;22.00;77.14
66543;BME280;53395;37.360;-122.046;2022-08-19T01:02:22;100824.78;;;21.72;79.57
66543;BME280;53395;37.360;-122.046;2022-08-19T01:04:48;100827.09;;;21.64;79.88
66543;BME280;53395;37.360;-122.046;2022-08-19T01:07:14;100825.78;;;21.84;79.29
66543;BME280;53395;37.360;-122.046;2022-08-19T01:09:40;100829.53;;;22.09;79.44
66543;BME280;53395;37.360;-122.046;2022-08-19T01:12:08;100839.22;;;21.83;79.89
66543;BME280;53395;37.360;-122.046;2022-08-19T01:14:36;100826.34;;;21.33;81.01
66543;BME280;53395;37.360;-122.046;2022-08-19T01:17:04;100820.63;;;21.68;80.10
66543;BME280;53395;37.360;-122.046;2022-08-19T01:19:40;100819.97;;;21.65;79.53
66543;BME280;53395;37.360;-122.046;2022-08-19T01:22:32;100820.50;;;20.84;83.98
66543;BME280;53395;37.360;-122.046;2022-08-19T01:25:02;100822.16;;;21.58;78.25
66543;BME280;53395;37.360;-122.046;2022-08-19T01:27:37;100813.66;;;21.66;79.36
66543;BME280;53395;37.360;-122.046;2022-08-19T01:30:08;100817.97;;;21.11;83.41
66543;BME280;53395;37.360;-122.046;2022-08-19T01:32:34;100807.22;;;20.84;84.92
66543;BME280;53395;37.360;-122.046;2022-08-19T01:35:02;100809.97;;;20.97;85.23
66543;BME280;53395;37.360;-122.046;2022-08-19T01:37:29;100807.38;;;20.66;86.09
66543;BME280;53395;37.360;-122.046;2022-08-19T01:39:56;100811.53;;;20.56;87.02
66543;BME280;53395;37.360;-122.046;2022-08-19T01:42:22;100826.66;;;20.08;89.82
66543;BME280;53395;37.360;-122.046;2022-08-19T01:44:48;100820.22;;;20.28;89.54
66543;BME280;53395;37.360;-122.046;2022-08-19T01:47:14;100817.78;;;20.09;90.02
66543;BME280;53395;37.360;-122.046;2022-08-19T01:49:41;100813.06;;;20.14;91.02
66543;BME280;53395;37.360;-122.046;2022-08-19T01:52:07;100815.50;;;20.33;91.38
66543;BME280;53395;37.360;-122.046;2022-08-19T01:54:33;100818.13;;;20.03;93.50
66543;BME280;53395;37.360;-122.046;2022-08-19T01:57:05;100832.06;;;20.06;94.13
66543;BME280;53395;37.360;-122.046;2022-08-19T01:59:33;100817.50;;;20.30;93.00
66543;BME280;53395;37.360;-122.046;2022-08-19T02:02:03;100824.25;;;20.19;93.46
66543;BME280;53395;37.360;-122.046;2022-08-19T02:04:33;100820.69;;;19.89;95.56
66543;BME280;53395;37.360;-122.046;2022-08-19T02:07:00;100831.63;;;19.67;96.10
66543;BME280;53395;37.360;-122.046;2022-08-19T02:09:27;100827.78;;;19.72;97.10
66543;BME280;53395;37.360;-122.046;2022-08-19T02:11:53;100825.59;;;19.80;97.19
66543;BME280;53395;37.360;-122.046;2022-08-19T02:14:19;100825.72;;;19.77;97.08
66543;BME280;53395;37.360;-122.046;2022-08-19T02:16:45;100833.00;;;19.25;100.00
66543;BME280;53395;37.360;-122.046;2022-08-19T02:19:12;100832.75;;;19.29;100.00
66543;BME280;53395;37.360;-122.046;2022-08-19T02:21:38;100836.81;;;19.52;99.13
66543;BME280;53395;37.360;-122.046;2022-08-19T02:24:04;100830.00;;;19.15;100.00
66543;BME280;53395;37.360;-122.046;2022-08-19T02:26:34;100835.81;;;19.21;100.00
66543;BME280;53395;37.360;-122.046;2022-08-19T02:28:59;100828.72;;;19.22;100.00
66543;BME280;53395;37.360;-122.046;2022-08-19T02:31:26;100833.72;;;19.44;99.60
66543;BME280;53395;37.360;-122.046;2022-08-19T02:33:54;100833.81;;;19.42;99.02
66543;BME280;53395;37.360;-122.046;2022-08-19T02:36:21;100826.47;;;19.48;99.70
66543;BME280;53395;37.360;-122.046;2022-08-19T02:38:48;100825.75;;;19.44;100.00
66543;BME280;53395;37.360;-122.046;2022-08-19T02:41:18;100831.44;;;19.20;100.00
66543;BME280;53395;37.360;-122.046;2022-08-19T02:43:45;100824.88;;;19.28;100.00
66543;BME280;53395;37.360;-122.046;2022-08-19T02:46:27;100850.97;;;18.85;100.00
66543;BME280;53395;37.360;-122.046;2022-08-19T02:48:57;100851.31;;;19.12;100.00
66543;BME280;53395;37.360;-122.046;2022-08-19T02:51:32;100854.00;;;18.94;100.00
66543;BME280;53395;37.360;-122.046;2022-08-19T02:53:59;100857.75;;;19.08;100.00
66543;BME280;53395;37.360;-122.046;2022-08-19T02:56:26;100863.28;;;19.03;100.00
66543;BME280;53395;37.360;-122.046;2022-08-19T02:58:54;100874.19;;;18.43;100.00
66543;BME280;53395;37.360;-122.046;2022-08-19T03:01:24;100873.06;;;18.49;100.00
66543;BME280;53395;37.360;-122.046;2022-08-19T03:03:51;100882.41;;;18.56;100.00
66543;BME280;53395;37.360;-122.046;2022-08-19T03:06:18;100878.56;;;18.44;100.00
66543;BME280;53395;37.360;-122.046;2022-08-19T03:08:45;100884.44;;;18.32;100.00
66543;BME280;53395;37.360;-122.046;2022-08-19T03:11:22;100883.50;;;18.15;100.00
66543;BME280;53395;37.360;-122.046;2022-08-19T03:13:49;100891.50;;;18.14;100.00
66543;BME280;53395;37.360;-122.046;2022-08-19T03:16:18;100891.13;;;18.22;100.00
66543;BME280;53395;37.360;-122.046;2022-08-19T03:18:48;100892.75;;;18.24;100.00
66543;BME280;53395;37.360;-122.046;2022-08-19T03:21:24;100883.19;;;18.22;100.00
66543;BME280;53395;37.360;-122.046;2022-08-19T03:23:54;100884.22;;;18.00;100.00
66543;BME280;53395;37.360;-122.046;2022-08-19T03:26:20;100889.31;;;18.22;100.00
66543;BME280;53395;37.360;-122.046;2022-08-19T03:28:47;100891.19;;;18.74;100.00
66543;BME280;53395;37.360;-122.046;2022-08-19T03:31:18;100892.91;;;18.21;100.00
66543;BME280;53395;37.360;-122.046;2022-08-19T03:33:45;100889.97;;;18.27;100.00
66543;BME280;53395;37.360;-122.046;2022-08-19T03:36:15;100888.53;;;18.20;100.00
66543;BME280;53395;37.360;-122.046;2022-08-19T03:38:44;100894.03;;;18.34;100.00
66543;BME280;53395;37.360;-122.046;2022-08-19T03:41:13;100892.72;;;18.07;100.00
66543;BME280;53395;37.360;-122.046;2022-08-19T03:43:41;100893.88;;;18.37;100.00
66543;BME280;53395;37.360;-122.046;2022-08-19T03:46:11;100893.47;;;18.28;100.00
66543;BME280;53395;37.360;-122.046;2022-08-19T03:48:40;100898.31;;;18.37;100.00
66543;BME280;53395;37.360;-122.046;2022-08-19T03:51:14;100902.25;;;18.28;100.00
66543;BME280;53395;37.360;-122.046;2022-08-19T03:53:41;100905.19;;;18.22;100.00
66543;BME280;53395;37.360;-122.046;2022-08-19T03:56:09;100910.41;;;18.24;100.00
66543;BME280;53395;37.360;-122.046;2022-08-19T03:58:35;100910.16;;;18.30;100.00
66543;BME280;53395;37.360;-122.046;2022-08-19T04:01:08;100905.38;;;17.81;100.00
66543;BME280;53395;37.360;-122.046;2022-08-19T04:03:34;100905.56;;;18.14;100.00
66543;BME280;53395;37.360;-122.046;2022-08-19T04:06:16;100904.31;;;18.41;100.00
66543;BME280;53395;37.360;-122.046;2022-08-19T04:08:44;100903.56;;;18.01;100.00
66543;BME280;53395;37.360;-122.046;2022-08-19T04:11:17;100908.91;;;18.37;100.00
66543;BME280;53395;37.360;-122.046;2022-08-19T04:13:43;100916.53;;;18.43;100.00
66543;BME280;53395;37.360;-122.046;2022-08-19T04:16:10;100913.31;;;17.80;100.00
66543;BME280;53395;37.360;-122.046;2022-08-19T04:18:39;100919.31;;;17.64;100.00
66543;BME280;53395;37.360;-122.046;2022-08-19T04:21:07;100924.44;;;18.07;100.00
66543;BME280;53395;37.360;-122.046;2022-08-19T04:23:35;100921.72;;;18.08;100.00
66543;BME280;53395;37.360;-122.046;2022-08-19T04:26:04;100919.66;;;17.96;100.00
66543;BME280;53395;37.360;-122.046;2022-08-19T04:28:30;100929.44;;;17.94;100.00
66543;BME280;53395;37.360;-122.046;2022-08-19T04:30:56;100926.56;;;18.36;100.00
66543;BME280;53395;37.360;-122.046;2022-08-19T04:33:25;100929.88;;;18.04;100.00
66543;BME280;53395;37.360;-122.046;2022-08-19T04:35:52;100934.25;;;17.65;100.00
66543;BME280;53395;37.360;-122.046;2022-08-19T04:38:20;100941.97;;;17.90;100.00
66543;BME280;53395;37.360;-122.046;2022-08-19T04:40:51;100937.22;;;17.78;100.00
66543;BME280;53395;37.360;-122.046;2022-08-19T04:43:38;100936.00;;;17.46;100.00
66543;BME280;53395;37.360;-122.046;2022-08-19T04:46:10;100936.47;;;17.74;100.00
66543;BME280;53395;37.360;-122.046;2022-08-19T04:48:37;100940.59;;;18.01;100.00
66543;BME280;53395;37.360;-122.046;2022-08-19T04:51:08;100940.31;;;17.88;100.00
66543;BME280;53395;37.360;-122.046;2022-08-19T04:53:37;100943.53;;;18.13;100.00
66543;BME280;53395;37.360;-122.046;2022-08-19T04:56:07;100938.06;;;17.79;100.00
66543;BME280;53395;37.360;-122.046;2022-08-19T04:58:34;100931.66;;;17.84;100.00
66543;BME280;53395;37.360;-122.046;2022-08-19T05:01:00;100935.47;;;17.77;100.00
66543;BME280;53395;37.360;-122.046;2022-08-19T05:03:27;100934.34;;;17.64;100.00
66543;BME280;53395;37.360;-122.046;2022-08-19T05:05:53;100923.31;;;17.73;100.00
66543;BME280;53395;37.360;-122.046;2022-08-19T05:08:21;100922.63;;;17.49;100.00
66543;BME280;53395;37.360;-122.046;2022-08-19T05:10:50;100927.88;;;17.90;100.00
66543;BME280;53395;37.360;-122.046;2022-08-19T05:13:18;100928.66;;;17.92;100.00
66543;BME280;53395;37.360;-122.046;2022-08-19T05:15:54;100929.03;;;17.64;100.00
66543;BME280;53395;37.360;-122.046;2022-08-19T05:18:21;100924.72;;;18.01;100.00
66543;BME280;53395;37.360;-122.046;2022-08-19T05:21:08;100911.88;;;17.93;100.00
66543;BME280;53395;37.360;-122.046;2022-08-19T05:23:53;100910.59;;;17.83;100.00
66543;BME280;53395;37.360;-122.046;2022-08-19T05:26:18;100903.47;;;17.64;100.00
66543;BME280;53395;37.360;-122.046;2022-08-19T05:28:45;100894.69;;;17.64;100.00
66543;BME280;53395;37.360;-122.046;2022-08-19T05:31:11;100903.25;;;17.69;100.00
66543;BME280;53395;37.360;-122.046;2022-08-19T05:33:38;100904.56;;;17.98;100.00
66543;BME280;53395;37.360;-122.046;2022-08-19T05:36:06;100910.50;;;18.03;100.00
66543;BME280;53395;37.360;-122.046;2022-08-19T05:38:34;100908.34;;;18.30;100.00
66543;BME280;53395;37.360;-122.046;2022-08-19T05:41:10;100904.50;;;18.00;100.00
66543;BME280;53395;37.360;-122.046;2022-08-19T05:43:37;100901.50;;;18.07;100.00
66543;BME280;53395;37.360;-122.046;2022-08-19T05:46:05;100899.50;;;17.54;100.00
66543;BME280;53395;37.360;-122.046;2022-08-19T05:48:35;100896.22;;;18.07;100.00
66543;BME280;53395;37.360;-122.046;2022-08-19T05:51:05;100899.13;;;18.56;100.00
66543;BME280;53395;37.360;-122.046;2022-08-19T05:53:32;100898.91;;;18.06;100.00
66543;BME280;53395;37.360;-122.046;2022-08-19T05:56:07;100885.56;;;18.09;100.00
66543;BME280;53395;37.360;-122.046;2022-08-19T05:58:35;100887.25;;;17.72;100.00
66543;BME280;53395;37.360;-122.046;2022-08-19T06:01:02;100892.69;;;17.69;100.00
66543;BME280;53395;37.360;-122.046;2022-08-19T06:03:35;100888.81;;;17.57;100.00
66543;BME280;53395;37.360;-122.046;2022-08-19T06:06:03;100891.16;;;17.84;100.00
66543;BME280;53395;37.360;-122.046;2022-08-19T06:08:31;100893.72;;;17.85;100.00
66543;BME280;53395;37.360;-122.046;2022-08-19T06:10:58;100885.50;;;17.91;100.00
66543;BME280;53395;37.360;-122.046;2022-08-19T06:13:37;100878.44;;;17.52;100.00
66543;BME280;53395;37.360;-122.046;2022-08-19T06:16:04;100871.44;;;17.51;100.00
66543;BME280;53395;37.360;-122.046;2022-08-19T06:18:30;100884.44;;;17.56;100.00
66543;BME280;53395;37.360;-122.046;2022-08-19T06:20:56;100882.91;;;17.71;100.00
66543;BME280;53395;37.360;-122.046;2022-08-19T06:23:22;100877.13;;;17.82;100.00
66543;BME280;53395;37.360;-122.046;2022-08-19T06:25:48;100874.34;;;17.85;100.00
66543;BME280;53395;37.360;-122.046;2022-08-19T06:28:14;100870.78;;;18.05;100.00
66543;BME280;53395;37.360;-122.046;2022-08-19T06:30:41;100872.88;;;17.59;100.00
66543;BME280;53395;37.360;-122.046;2022-08-19T06:33:07;100869.09;;;17.64;100.00
66543;BME280;53395;37.360;-122.046;2022-08-19T06:35:33;100872.84;;;17.40;100.00
66543;BME280;53395;37.360;-122.046;2022-08-19T06:38:04;100869.28;;;17.41;100.00
66543;BME280;53395;37.360;-122.046;2022-08-19T06:40:30;100866.06;;;17.34;100.00
66543;BME280;53395;37.360;-122.046;2022-08-19T06:42:56;100867.91;;;17.32;100.00
66543;BME280;53395;37.360;-122.046;2022-08-19T06:45:24;100861.34;;;17.22;100.00
66543;BME280;53395;37.360;-122.046;2022-08-19T06:47:52;100859.41;;;17.25;100.00
66543;BME280;53395;37.360;-122.046;2022-08-19T06:50:25;100856.06;;;17.22;100.00
66543;BME280;53395;37.360;-122.046;2022-08-19T06:52:51;100866.22;;;17.10;100.00
66543;BME280;53395;37.360;-122.046;2022-08-19T06:55:17;100856.56;;;17.09;100.00
66543;BME280;53395;37.360;-122.046;2022-08-19T06:57:43;100863.38;;;17.15;100.00
66543;BME280;53395;37.360;-122.046;2022-08-19T07:00:12;100860.25;;;17.26;100.00
66543;BME280;53395;37.360;-122.046;2022-08-19T07:02:44;100855.41;;;16.96;100.00
66543;BME280;53395;37.360;-122.046;2022-08-19T07:05:10;100853.47;;;17.00;100.00
66543;BME280;53395;37.360;-122.046;2022-08-19T07:07:36;100856.38;;;17.14;100.00
66543;BME280;53395;37.360;-122.046;2022-08-19T07:10:04;100850.53;;;17.07;100.00
66543;BME280;53395;37.360;-122.046;2022-08-19T07:12:32;100849.00;;;17.41;100.00
66543;BME280;53395;37.360;-122.046;2022-08-19T07:14:59;100836.38;;;17.08;100.00
66543;BME280;53395;37.360;-122.046;2022-08-19T07:17:25;100845.53;;;17.20;100.00
66543;BME280;53395;37.360;-122.046;2022-08-19T07:19:51;100851.38;;;17.08;100.00
66543;BME280;53395;37.360;-122.046;2022-08-19T07:22:17;100847.16;;;16.83;100.00
66543;BME280;53395;37.360;-122.046;2022-08-19T07:24:46;100842.16;;;17.37;100.00
66543;BME280;53395;37.360;-122.046;2022-08-19T07:27:14;100845.59;;;17.19;100.00
66543;BME280;53395;37.360;-122.046;2022-08-19T07:29:40;100845.69;;;17.17;100.00
66543;BME280;53395;37.360;-122.046;2022-08-19T07:32:07;100843.34;;;16.68;100.00
66543;BME280;53395;37.360;-122.046;2022-08-19T07:34:34;100838.91;;;16.91;100.00
66543;BME280;53395;37.360;-122.046;2022-08-19T07:37:06;100830.97;;;16.70;100.00
66543;BME280;53395;37.360;-122.046;2022-08-19T07:39:35;100839.78;;;16.69;100.00
66543;BME280;53395;37.360;-122.046;2022-08-19T07:42:05;100827.53;;;16.68;100.00
66543;BME280;53395;37.360;-122.046;2022-08-19T07:44:33;100827.53;;;16.68;100.00
66543;BME280;53395;37.360;-122.046;2022-08-19T07:47:00;100833.25;;;16.78;100.00
66543;BME280;53395;37.360;-122.046;2022-08-19T07:49:27;100836.59;;;16.83;100.00
66543;BME280;53395;37.360;-122.046;2022-08-19T07:51:57;100833.03;;;16.62;100.00
66543;BME280;53395;37.360;-122.046;2022-08-19T07:54:25;100835.94;;;16.77;100.00
66543;BME280;53395;37.360;-122.046;2022-08-19T07:56:53;100826.03;;;16.83;100.00
66543;BME280;53395;37.360;-122.046;2022-08-19T07:59:20;100828.50;;;16.66;100.00
66543;BME280;53395;37.360;-122.046;2022-08-19T08:01:47;100828.75;;;16.60;100.00
66543;BME280;53395;37.360;-122.046;2022-08-19T08:04:14;100826.72;;;16.66;100.00
66543;BME280;53395;37.360;-122.046;2022-08-19T08:06:58;100834.03;;;16.60;100.00
66543;BME280;53395;37.360;-122.046;2022-08-19T08:09:43;100837.13;;;16.69;100.00
66543;BME280;53395;37.360;-122.046;2022-08-19T08:12:20;100836.00;;;16.55;100.00
66543;BME280;53395;37.360;-122.046;2022-08-19T08:14:52;100828.03;;;16.56;100.00
66543;BME280;53395;37.360;-122.046;2022-08-19T08:17:21;100838.28;;;16.64;100.00
66543;BME280;53395;37.360;-122.046;2022-08-19T08:19:48;100837.28;;;16.66;100.00
66543;BME280;53395;37.360;-122.046;2022-08-19T08:22:18;100835.38;;;16.70;100.00
66543;BME280;53395;37.360;-122.046;2022-08-19T08:25:15;100826.03;;;16.83;100.00
66543;BME280;53395;37.360;-122.046;2022-08-19T08:27:43;100820.63;;;16.86;100.00
66543;BME280;53395;37.360;-122.046;2022-08-19T08:30:24;100817.31;;;16.81;100.00
66543;BME280;53395;37.360;-122.046;2022-08-19T08:32:51;100820.03;;;16.80;100.00
66543;BME280;53395;37.360;-122.046;2022-08-19T08:35:20;100813.81;;;16.60;100.00
66543;BME280;53395;37.360;-122.046;2022-08-19T08:37:48;100813.56;;;16.87;100.00
66543;BME280;53395;37.360;-122.046;2022-08-19T08:40:27;100817.16;;;16.64;100.00
66543;BME280;53395;37.360;-122.046;2022-08-19T08:43:13;100819.75;;;16.65;100.00
66543;BME280;53395;37.360;-122.046;2022-08-19T08:45:49;100807.34;;;16.67;100.00
66543;BME280;53395;37.360;-122.046;2022-08-19T08:48:27;100813.47;;;16.68;100.00
66543;BME280;53395;37.360;-122.046;2022-08-19T08:50:57;100811.81;;;16.65;100.00
66543;BME280;53395;37.360;-122.046;2022-08-19T08:53:25;100806.41;;;16.68;100.00
66543;BME280;53395;37.360;-122.046;2022-08-19T08:55:52;100807.47;;;16.64;100.00
66543;BME280;53395;37.360;-122.046;2022-08-19T08:58:20;100814.19;;;16.72;100.00
66543;BME280;53395;37.360;-122.046;2022-08-19T09:00:51;100811.63;;;16.70;100.00
66543;BME280;53395;37.360;-122.046;2022-08-19T09:03:26;100814.97;;;16.74;100.00
66543;BME280;53395;37.360;-122.046;2022-08-19T09:08:29;100805.16;;;16.77;100.00
66543;BME280;53395;37.360;-122.046;2022-08-19T09:10:59;100802.41;;;17.01;100.00
66543;BME280;53395;37.360;-122.046;2022-08-19T09:13:41;100799.44;;;16.88;100.00
66543;BME280;53395;37.360;-122.046;2022-08-19T09:16:19;100795.16;;;16.85;100.00
66543;BME280;53395;37.360;-122.046;2022-08-19T09:18:53;100797.59;;;16.90;100.00
66543;BME280;53395;37.360;-122.046;2022-08-19T09:21:21;100789.47;;;16.95;100.00
66543;BME280;53395;37.360;-122.046;2022-08-19T09:23:49;100789.84;;;17.06;100.00
66543;BME280;53395;37.360;-122.046;2022-08-19T09:26:17;100787.22;;;17.25;100.00
66543;BME280;53395;37.360;-122.046;2022-08-19T09:28:45;100784.00;;;17.18;100.00
66543;BME280;53395;37.360;-122.046;2022-08-19T09:31:14;100787.63;;;16.97;100.00
66543;BME280;53395;37.360;-122.046;2022-08-19T09:33:40;100788.34;;;17.00;100.00
66543;BME280;53395;37.360;-122.046;2022-08-19T09:36:12;100787.03;;;16.90;100.00
66543;BME280;53395;37.360;-122.046;2022-08-19T09:38:39;100781.09;;;16.85;100.00
66543;BME280;53395;37.360;-122.046;2022-08-19T09:41:14;100775.81;;;16.85;100.00
66543;BME280;53395;37.360;-122.046;2022-08-19T09:43:45;100771.53;;;16.82;100.00
66543;BME280;53395;37.360;-122.046;2022-08-19T09:46:12;100781.41;;;16.98;100.00
66543;BME280;53395;37.360;-122.046;2022-08-19T09:48:39;100773.28;;;17.21;100.00
66543;BME280;53395;37.360;-122.046;2022-08-19T09:51:13;100777.34;;;17.09;100.00
66543;BME280;53395;37.360;-122.046;2022-08-19T09:53:44;100773.63;;;16.95;100.00
66543;BME280;53395;37.360;-122.046;2022-08-19T09:56:11;100775.16;;;17.00;100.00
66543;BME280;53395;37.360;-122.046;2022-08-19T09:58:38;100778.97;;;16.93;100.00
66543;BME280;53395;37.360;-122.046;2022-08-19T10:01:06;100773.53;;;16.76;100.00
66543;BME280;53395;37.360;-122.046;2022-08-19T10:03:34;100767.22;;;17.00;100.00
66543;BME280;53395;37.360;-122.046;2022-08-19T10:06:02;100776.91;;;17.00;100.00
66543;BME280;53395;37.360;-122.046;2022-08-19T10:08:33;100767.63;;;16.91;100.00
66543;BME280;53395;37.360;-122.046;2022-08-19T10:11:00;100770.44;;;17.26;100.00
66543;BME280;53395;37.360;-122.046;2022-08-19T10:13:29;100774.88;;;17.25;100.00
66543;BME280;53395;37.360;-122.046;2022-08-19T10:15:57;100765.66;;;16.96;100.00
66543;BME280;53395;37.360;-122.046;2022-08-19T10:18:27;100759.38;;;16.99;100.00
66543;BME280;53395;37.360;-122.046;2022-08-19T10:21:01;100767.59;;;17.30;100.00
66543;BME280;53395;37.360;-122.046;2022-08-19T10:23:28;100765.09;;;17.27;100.00
66543;BME280;53395;37.360;-122.046;2022-08-19T10:25:59;100764.41;;;17.24;100.00
66543;BME280;53395;37.360;-122.046;2022-08-19T10:28:26;100771.31;;;17.26;100.00
66543;BME280;53395;37.360;-122.046;2022-08-19T10:30:52;100768.91;;;17.22;100.00
66543;BME280;53395;37.360;-122.046;2022-08-19T10:33:18;100767.25;;;17.19;100.00
66543;BME280;53395;37.360;-122.046;2022-08-19T10:35:44;100761.22;;;16.97;100.00
66543;BME280;53395;37.360;-122.046;2022-08-19T10:38:12;100764.66;;;16.99;100.00
66543;BME280;53395;37.360;-122.046;2022-08-19T10:40:38;100763.13;;;16.93;100.00
66543;BME280;53395;37.360;-122.046;2022-08-19T10:43:04;100765.66;;;16.96;100.00
66543;BME280;53395;37.360;-122.046;2022-08-19T10:45:30;100768.22;;;16.77;100.00
66543;BME280;53395;37.360;-122.046;2022-08-19T10:47:56;100773.25;;;16.63;100.00
66543;BME280;53395;37.360;-122.046;2022-08-19T10:50:22;100763.00;;;16.55;100.00
66543;BME280;53395;37.360;-122.046;2022-08-19T10:53:08;100755.03;;;16.77;100.00
66543;BME280;53395;37.360;-122.046;2022-08-19T10:55:34;100758.97;;;16.87;100.00
66543;BME280;53395;37.360;-122.046;2022-08-19T10:58:21;100754.38;;;16.72;100.00
66543;BME280;53395;37.360;-122.046;2022-08-19T11:00:58;100750.56;;;16.79;100.00
66543;BME280;53395;37.360;-122.046;2022-08-19T11:03:26;100752.00;;;16.86;100.00
66543;BME280;53395;37.360;-122.046;2022-08-19T11:06:02;100745.78;;;16.87;100.00
66543;BME280;53395;37.360;-122.046;2022-08-19T11:08:29;100755.69;;;16.82;100.00
66543;BME280;53395;37.360;-122.046;2022-08-19T11:10:59;100749.75;;;16.77;100.00
66543;BME280;53395;37.360;-122.046;2022-08-19T11:13:27;100750.38;;;16.84;100.00
66543;BME280;53395;37.360;-122.046;2022-08-19T11:16:03;100752.28;;;16.99;100.00
66543;BME280;53395;37.360;-122.046;2022-08-19T11:18:30;100738.44;;;16.74;100.00
66543;BME280;53395;37.360;-122.046;2022-08-19T11:21:06;100748.28;;;16.70;100.00
66543;BME280;53395;37.360;-122.046;2022-08-19T11:23:32;100745.25;;;16.59;100.00
66543;BME280;53395;37.360;-122.046;2022-08-19T11:25:58;100748.16;;;16.73;100.00
66543;BME280;53395;37.360;-122.046;2022-08-19T11:28:25;100750.34;;;16.63;100.00
66543;BME280;53395;37.360;-122.046;2022-08-19T11:30:51;100750.47;;;16.81;100.00
66543;BME280;53395;37.360;-122.046;2022-08-19T11:33:17;100741.13;;;17.13;100.00
66543;BME280;53395;37.360;-122.046;2022-08-19T11:35:44;100751.22;;;16.84;100.00
66543;BME280;53395;37.360;-122.046;2022-08-19T11:38:10;100744.66;;;16.73;100.00
66543;BME280;53395;37.360;-122.046;2022-08-19T11:40:37;100735.81;;;16.53;100.00
66543;BME280;53395;37.360;-122.046;2022-08-19T11:43:03;100739.53;;;16.49;100.00
66543;BME280;53395;37.360;-122.046;2022-08-19T11:45:30;100731.88;;;16.63;100.00
66543;BME280;53395;37.360;-122.046;2022-08-19T11:47:57;100736.00;;;16.69;100.00
66543;BME280;53395;37.360;-122.046;2022-08-19T11:50:23;100738.59;;;16.70;100.00
66543;BME280;53395;37.360;-122.046;2022-08-19T11:52:50;100739.69;;;16.65;100.00
66543;BME280;53395;37.360;-122.046;2022-08-19T11:55:19;100742.72;;;16.76;100.00
66543;BME280;53395;37.360;-122.046;2022-08-19T11:57:45;100737.78;;;16.68;100.00
66543;BME280;53395;37.360;-122.046;2022-08-19T12:00:15;100730.03;;;16.65;100.00
66543;BME280;53395;37.360;-122.046;2022-08-19T12:02:41;100738.06;;;16.62;100.00
66543;BME280;53395;37.360;-122.046;2022-08-19T12:05:08;100729.31;;;16.82;100.00
66543;BME280;53395;37.360;-122.046;2022-08-19T12:07:35;100738.66;;;16.89;100.00
66543;BME280;53395;37.360;-122.046;2022-08-19T12:10:02;100738.59;;;16.70;100.00
66543;BME280;53395;37.360;-122.046;2022-08-19T12:12:28;100735.56;;;16.80;100.00
66543;BME280;53395;37.360;-122.046;2022-08-19T12:14:54;100738.25;;;16.58;100.00
66543;BME280;53395;37.360;-122.046;2022-08-19T12:17:27;100735.19;;;16.27;100.00
66543;BME280;53395;37.360;-122.046;2022-08-19T12:19:54;100738.47;;;16.33;100.00
66543;BME280;53395;37.360;-122.046;2022-08-19T12:22:20;100744.25;;;16.41;100.00
66543;BME280;53395;37.360;-122.046;2022-08-19T12:24:46;100743.53;;;16.78;100.00